createdAt,value
2019-02-08T00:01:43.458Z,4.38
2019-02-08T00:04:13.839Z,4.02
2019-02-08T00:06:44.130Z,4.35
2019-02-08T00:09:14.457Z,4.31
2019-02-08T00:11:44.750Z,4.56
2019-02-08T00:14:15.053Z,4.37
2019-02-08T00:16:45.340Z,4.25
2019-02-08T00:19:15.618Z,4.33
2019-02-08T00:21:45.900Z,4.14
2019-02-08T00:24:16.244Z,4.21
2019-02-08T00:26:46.518Z,4.32
2019-02-08T00:29:16.808Z,4.34
2019-02-08T00:31:47.086Z,4.21
2019-02-08T00:34:17.399Z,4.49
2019-02-08T00:36:47.690Z,4.11
2019-02-08T00:39:17.967Z,4.33
2019-02-08T00:41:48.619Z,4.32
2019-02-08T00:44:19.348Z,4.17
2019-02-08T00:46:49.854Z,4.23
2019-02-08T00:49:20.128Z,4.30
2019-02-08T00:51:50.424Z,4.33
2019-02-08T00:54:20.778Z,3.96
2019-02-08T00:56:51.404Z,4.13
2019-02-08T00:59:21.688Z,4.06
2019-02-08T01:01:51.972Z,4.11
2019-02-08T01:04:22.253Z,4.14
2019-02-08T01:06:52.574Z,4.21
2019-02-08T01:09:22.868Z,3.96
2019-02-08T01:11:53.433Z,3.96
2019-02-08T01:14:23.728Z,3.83
2019-02-08T01:16:54.032Z,3.85
2019-02-08T01:19:24.320Z,3.73
2019-02-08T01:21:54.615Z,3.74
2019-02-08T01:24:24.917Z,3.78
2019-02-08T01:26:56.265Z,3.75
2019-02-08T01:29:26.561Z,3.59
2019-02-08T01:31:56.859Z,3.75
2019-02-08T01:34:27.156Z,3.62
2019-02-08T01:36:57.590Z,3.73
2019-02-08T01:39:27.856Z,3.69
2019-02-08T01:41:58.129Z,4.09
2019-02-08T01:44:28.438Z,4.05
2019-02-08T01:46:58.716Z,3.86
2019-02-08T01:49:28.982Z,3.91
2019-02-08T01:51:59.274Z,3.96
2019-02-08T01:54:29.596Z,4.27
2019-02-08T01:56:59.877Z,3.94
2019-02-08T01:59:30.156Z,3.96
2019-02-08T02:02:00.456Z,4.09
2019-02-08T02:04:30.751Z,4.05
2019-02-08T02:07:01.092Z,4.10
2019-02-08T02:09:31.419Z,4.05
2019-02-08T02:12:01.697Z,3.99
2019-02-08T02:14:32.154Z,4.02
2019-02-08T02:17:02.594Z,4.27
2019-02-08T02:19:32.878Z,3.94
2019-02-08T02:22:03.163Z,4.02
2019-02-08T02:24:33.460Z,4.19
2019-02-08T02:27:03.787Z,4.23
2019-02-08T02:29:34.135Z,4.23
2019-02-08T02:32:05.400Z,4.32
2019-02-08T02:34:35.678Z,4.41
2019-02-08T02:37:05.980Z,4.28
2019-02-08T02:39:36.301Z,4.32
2019-02-08T02:42:06.581Z,3.93
2019-02-08T02:44:36.864Z,4.02
2019-02-08T02:47:07.136Z,4.13
2019-02-08T02:49:37.461Z,4.43
2019-02-08T02:52:07.786Z,4.41
2019-02-08T02:54:38.224Z,4.85
2019-02-08T02:57:08.525Z,4.82
2019-02-08T02:59:38.827Z,4.83
2019-02-08T03:02:09.141Z,5.09
2019-02-08T03:04:39.417Z,5.22
2019-02-08T03:07:09.716Z,5.07
2019-02-08T03:09:39.991Z,5.28
2019-02-08T03:12:10.278Z,5.42
2019-02-08T03:14:40.641Z,5.35
2019-02-08T03:17:10.935Z,5.36
2019-02-08T03:19:41.239Z,5.36
2019-02-08T03:22:11.516Z,5.25
2019-02-08T03:24:41.804Z,5.37
2019-02-08T03:27:12.095Z,4.91
2019-02-08T03:29:42.428Z,5.26
2019-02-08T03:32:12.703Z,5.05
2019-02-08T03:34:42.987Z,4.97
2019-02-08T03:37:13.271Z,4.70
2019-02-08T03:39:43.606Z,4.83
2019-02-08T03:42:13.903Z,4.53
2019-02-08T03:44:44.238Z,4.69
2019-02-08T03:47:14.525Z,4.36
2019-02-08T03:49:44.817Z,4.33
2019-02-08T03:52:15.127Z,4.47
2019-02-08T03:54:45.415Z,4.28
2019-02-08T03:57:15.753Z,3.89
2019-02-08T03:59:46.051Z,4.00
2019-02-08T04:02:16.323Z,4.15
2019-02-08T04:04:46.587Z,4.18
2019-02-08T04:07:16.886Z,3.78
2019-02-08T04:09:47.283Z,3.76
2019-02-08T04:12:17.915Z,3.63
2019-02-08T04:14:48.197Z,3.85
2019-02-08T04:17:18.510Z,3.45
2019-02-08T04:19:48.860Z,3.53
2019-02-08T04:22:19.158Z,3.51
2019-02-08T04:24:49.483Z,3.65
2019-02-08T04:27:19.818Z,3.68
2019-02-08T04:29:50.088Z,3.59
2019-02-08T04:32:20.385Z,3.68
2019-02-08T04:34:50.686Z,3.60
2019-02-08T04:37:21.098Z,3.63
2019-02-08T04:39:51.439Z,3.49
2019-02-08T04:42:21.999Z,3.75
2019-02-08T04:44:52.290Z,3.97
2019-02-08T04:47:22.617Z,4.36
2019-02-08T04:49:52.909Z,4.26
2019-02-08T04:52:24.438Z,4.09
2019-02-08T04:54:54.868Z,4.33
2019-02-08T04:57:25.212Z,4.34
2019-02-08T04:59:55.774Z,4.22
2019-02-08T05:02:26.116Z,4.17
2019-02-08T05:04:56.513Z,4.41
2019-02-08T05:07:27.419Z,4.51
2019-02-08T05:09:57.832Z,4.47
2019-02-08T05:12:28.531Z,4.79
2019-02-08T05:14:58.783Z,4.67
2019-02-08T05:17:29.095Z,4.48
2019-02-08T05:19:59.383Z,4.67
2019-02-08T05:22:29.659Z,4.73
2019-02-08T05:24:59.956Z,4.75
2019-02-08T05:27:30.222Z,4.76
2019-02-08T05:30:00.551Z,4.92
2019-02-08T05:32:30.804Z,5.07
2019-02-08T05:35:01.110Z,5.07
2019-02-08T05:37:31.377Z,5.33
2019-02-08T05:40:01.776Z,5.22
2019-02-08T05:42:32.110Z,5.00
2019-02-08T05:45:02.473Z,5.32
2019-02-08T05:47:33.338Z,5.39
2019-02-08T05:50:05.238Z,5.30
2019-02-08T05:52:36.023Z,5.27
2019-02-08T05:55:10.738Z,5.44
2019-02-08T05:57:41.101Z,5.62
2019-02-08T06:00:24.927Z,5.76
2019-02-08T06:02:55.327Z,5.77
2019-02-08T06:05:25.591Z,5.69
2019-02-08T06:07:55.878Z,5.71
2019-02-08T06:10:26.190Z,5.67
2019-02-08T06:12:56.975Z,5.75
2019-02-08T06:15:27.442Z,5.68
2019-02-08T06:17:57.743Z,5.67
2019-02-08T06:20:28.034Z,4.99
2019-02-08T06:22:59.299Z,5.56
2019-02-08T06:25:29.611Z,4.50
2019-02-08T06:28:00.854Z,4.19
2019-02-08T06:30:31.642Z,4.39
2019-02-08T06:33:01.944Z,4.80
2019-02-08T06:35:32.197Z,4.96
2019-02-08T06:38:02.480Z,5.22
2019-02-08T06:40:39.305Z,5.38
2019-02-08T06:43:10.524Z,5.37
2019-02-08T06:45:40.818Z,5.61
2019-02-08T06:48:11.739Z,5.76
2019-02-08T06:50:41.999Z,5.74
2019-02-08T06:53:12.355Z,5.89
2019-02-08T06:55:42.647Z,5.81
2019-02-08T06:58:14.911Z,5.84
2019-02-08T07:00:52.112Z,6.04
2019-02-08T07:03:35.994Z,5.97
2019-02-08T07:06:10.713Z,5.79
2019-02-08T07:08:51.417Z,5.77
2019-02-08T07:11:39.460Z,5.79
2019-02-08T07:14:23.609Z,5.70
2019-02-08T07:17:13.947Z,5.64
2019-02-08T07:19:55.186Z,5.86
2019-02-08T07:22:43.600Z,5.92
2019-02-08T07:25:30.719Z,5.82
2019-02-08T07:28:08.650Z,5.77
2019-02-08T07:30:59.709Z,5.81
2019-02-08T07:33:31.650Z,6.05
2019-02-08T07:36:03.565Z,6.05
2019-02-08T07:38:38.422Z,6.16
2019-02-08T07:41:25.602Z,6.10
2019-02-08T07:43:57.552Z,6.16
2019-02-08T07:46:29.486Z,6.25
2019-02-08T07:49:01.397Z,6.15
2019-02-08T07:51:39.296Z,6.18
2019-02-08T07:54:23.353Z,5.94
2019-02-08T07:57:07.294Z,5.90
2019-02-08T07:59:42.239Z,5.98
2019-02-08T08:02:20.543Z,5.67
2019-02-08T08:05:10.568Z,5.77
2019-02-08T08:07:42.510Z,5.79
2019-02-08T08:10:28.314Z,5.82
2019-02-08T08:13:02.938Z,5.78
2019-02-08T08:15:37.859Z,5.74
2019-02-08T08:18:09.828Z,5.66
2019-02-08T08:20:41.751Z,5.57
2019-02-08T08:23:25.918Z,5.74
2019-02-08T08:26:13.267Z,5.68
2019-02-08T08:29:01.704Z,5.66
2019-02-08T08:31:35.985Z,5.94
2019-02-08T08:34:12.479Z,5.61
2019-02-08T08:37:05.443Z,5.50
2019-02-08T08:39:47.961Z,5.58
2019-02-08T08:42:21.504Z,5.72
2019-02-08T08:45:00.866Z,5.84
2019-02-08T08:47:49.347Z,5.63
2019-02-08T08:50:25.872Z,5.53
2019-02-08T08:53:05.491Z,5.90
2019-02-08T08:55:54.298Z,5.93
2019-02-08T08:58:39.772Z,6.07
2019-02-08T09:01:31.273Z,6.14
2019-02-08T09:04:25.940Z,6.22
2019-02-08T09:07:16.260Z,6.45
2019-02-08T09:10:06.266Z,6.39
2019-02-08T09:12:48.816Z,6.44
2019-02-08T09:15:37.379Z,6.41
2019-02-08T09:18:22.789Z,6.42
2019-02-08T09:21:14.276Z,6.47
2019-02-08T09:23:47.825Z,6.47
2019-02-08T09:26:27.653Z,6.36
2019-02-08T09:29:07.034Z,6.54
2019-02-08T09:32:00.111Z,6.24
2019-02-08T09:34:42.551Z,6.47
2019-02-08T09:37:25.350Z,6.70
2019-02-08T09:40:13.900Z,6.65
2019-02-08T09:43:13.185Z,6.76
2019-02-08T09:46:06.193Z,6.76
2019-02-08T09:48:57.833Z,6.78
2019-02-08T09:51:54.319Z,6.79
2019-02-08T09:54:39.388Z,6.93
2019-02-08T09:57:21.979Z,6.88
2019-02-08T10:00:04.249Z,6.89
2019-02-08T10:03:03.225Z,6.89
2019-02-08T10:05:57.268Z,6.91
2019-02-08T10:09:02.521Z,7.44
2019-02-08T10:11:53.655Z,7.78
2019-02-08T10:14:48.121Z,7.60
2019-02-08T10:17:53.591Z,7.69
2019-02-08T10:20:29.633Z,7.72
2019-02-08T10:23:25.233Z,7.67
2019-02-08T10:26:07.610Z,7.68
2019-02-08T10:29:03.806Z,7.43
2019-02-08T10:31:46.506Z,7.44
2019-02-08T10:34:20.125Z,7.63
2019-02-08T10:37:06.027Z,7.64
2019-02-08T10:40:11.129Z,7.61
2019-02-08T10:43:02.831Z,7.55
2019-02-08T10:45:57.598Z,7.75
2019-02-08T10:48:52.270Z,7.86
2019-02-08T10:51:42.287Z,7.79
2019-02-08T10:54:33.758Z,7.84
2019-02-08T10:57:27.008Z,7.86
2019-02-08T11:00:20.130Z,8.09
2019-02-08T11:03:12.057Z,8.15
2019-02-08T11:06:02.090Z,8.40
2019-02-08T11:08:38.099Z,8.47
2019-02-08T11:11:31.051Z,8.60
2019-02-08T11:14:21.150Z,8.69
2019-02-08T11:17:11.415Z,8.72
2019-02-08T11:19:40.762Z,8.77
2019-02-08T11:22:11.083Z,8.75
2019-02-08T11:24:41.353Z,8.69
2019-02-08T11:27:11.675Z,8.68
2019-02-08T11:29:41.954Z,8.55
2019-02-08T11:32:12.250Z,8.65
2019-02-08T11:34:42.518Z,8.49
2019-02-08T11:37:12.817Z,8.60
2019-02-08T11:39:43.155Z,8.57
2019-02-08T11:42:13.431Z,8.48
2019-02-08T11:44:43.728Z,8.35
2019-02-08T11:47:13.985Z,8.47
2019-02-08T11:49:44.365Z,8.37
2019-02-08T11:52:15.773Z,8.39
2019-02-08T11:54:46.063Z,8.33
2019-02-08T11:57:16.403Z,8.44
2019-02-08T11:59:47.124Z,8.35
2019-02-08T12:02:17.423Z,8.50
2019-02-08T12:04:47.716Z,8.48
2019-02-08T12:07:18.057Z,8.55
2019-02-08T12:09:48.383Z,8.64
2019-02-08T12:12:18.663Z,8.59
2019-02-08T12:14:48.998Z,8.66
2019-02-08T12:17:19.341Z,8.63
2019-02-08T12:19:49.657Z,8.62
2019-02-08T12:22:19.985Z,8.59
2019-02-08T12:24:50.262Z,8.70
2019-02-08T12:27:20.583Z,8.71
2019-02-08T12:29:50.855Z,8.81
2019-02-08T12:32:21.157Z,8.75
2019-02-08T12:34:51.450Z,8.72
2019-02-08T12:37:21.737Z,8.72
2019-02-08T12:39:52.005Z,8.81
2019-02-08T12:42:22.303Z,8.78
2019-02-08T12:44:52.622Z,8.92
2019-02-08T12:47:22.920Z,8.92
2019-02-08T12:49:53.193Z,9.03
2019-02-08T12:52:23.473Z,8.92
2019-02-08T12:54:53.985Z,8.94
2019-02-08T12:57:24.370Z,8.89
2019-02-08T12:59:54.720Z,8.92
2019-02-08T13:02:24.998Z,8.99
2019-02-08T13:04:55.292Z,9.02
2019-02-08T13:07:25.574Z,9.14
2019-02-08T13:09:55.870Z,9.07
2019-02-08T13:12:26.184Z,9.04
2019-02-08T13:14:56.447Z,9.04
2019-02-08T13:17:26.731Z,8.97
2019-02-08T13:19:57.005Z,9.07
2019-02-08T13:22:27.900Z,8.96
2019-02-08T13:24:58.176Z,8.94
2019-02-08T13:27:29.556Z,8.94
2019-02-08T13:29:59.863Z,8.94
2019-02-08T13:32:30.143Z,8.94
2019-02-08T13:35:00.470Z,8.95
2019-02-08T13:37:33.480Z,8.87
2019-02-08T13:40:05.601Z,9.00
2019-02-08T13:42:35.923Z,9.02
2019-02-08T13:45:09.541Z,9.05
2019-02-08T13:47:39.850Z,9.04
2019-02-08T13:50:16.002Z,9.17
2019-02-08T13:52:46.284Z,9.11
2019-02-08T13:55:19.368Z,9.21
2019-02-08T13:57:49.646Z,9.18
2019-02-08T14:00:39.833Z,9.24
2019-02-08T14:03:10.129Z,9.22
2019-02-08T14:05:40.450Z,9.17
2019-02-08T14:08:10.892Z,9.16
2019-02-08T14:10:41.336Z,8.99
2019-02-08T14:13:11.608Z,8.91
2019-02-08T14:15:41.882Z,8.92
2019-02-08T14:18:12.211Z,9.00
2019-02-08T14:20:42.495Z,8.95
2019-02-08T14:23:12.798Z,8.86
2019-02-08T14:25:43.056Z,8.90
2019-02-08T14:28:13.589Z,8.77
2019-02-08T14:30:44.643Z,8.76
2019-02-08T14:33:15.380Z,8.73
2019-02-08T14:35:45.758Z,8.80
2019-02-08T14:38:19.027Z,8.78
2019-02-08T14:40:51.223Z,8.74
2019-02-08T14:43:23.283Z,8.75
2019-02-08T14:45:54.315Z,8.75
2019-02-08T14:48:24.693Z,8.73
2019-02-08T14:50:55.073Z,8.68
2019-02-08T14:53:25.392Z,8.64
2019-02-08T14:55:55.692Z,8.61
2019-02-08T14:58:26.013Z,8.53
2019-02-08T15:00:56.334Z,8.55
2019-02-08T15:03:26.661Z,8.51
2019-02-08T15:05:56.968Z,8.36
2019-02-08T15:08:27.264Z,8.46
2019-02-08T15:10:58.117Z,8.41
2019-02-08T15:13:28.498Z,8.38
2019-02-08T15:15:58.795Z,8.64
2019-02-08T15:18:29.105Z,8.32
2019-02-08T15:21:00.380Z,8.18
2019-02-08T15:23:30.732Z,8.01
2019-02-08T15:26:01.284Z,8.12
2019-02-08T15:28:31.601Z,8.12
2019-02-08T15:31:01.873Z,8.11
2019-02-08T15:33:32.150Z,7.91
2019-02-08T15:36:02.451Z,7.96
2019-02-08T15:38:32.739Z,7.89
2019-02-08T15:41:03.232Z,7.87
2019-02-08T15:43:34.053Z,7.98
2019-02-08T15:46:04.555Z,8.05
2019-02-08T15:48:35.387Z,7.87
2019-02-08T15:51:05.666Z,7.78
2019-02-08T15:53:35.937Z,7.66
2019-02-08T15:56:09.841Z,7.47
2019-02-08T15:58:40.283Z,7.63
2019-02-08T16:01:11.042Z,7.75
2019-02-08T16:03:41.785Z,7.49
2019-02-08T16:06:12.069Z,7.52
2019-02-08T16:08:42.420Z,7.31
2019-02-08T16:11:12.720Z,7.32
2019-02-08T16:13:43.030Z,7.24
2019-02-08T16:16:13.303Z,7.30
2019-02-08T16:18:43.662Z,7.32
2019-02-08T16:21:13.956Z,7.54
2019-02-08T16:23:44.329Z,7.60
2019-02-08T16:26:14.700Z,7.63
2019-02-08T16:28:45.016Z,7.58
2019-02-08T16:31:15.282Z,7.59
2019-02-08T16:33:45.556Z,7.57
2019-02-08T16:36:15.861Z,7.51
2019-02-08T16:38:46.199Z,7.49
2019-02-08T16:41:16.502Z,7.43
2019-02-08T16:43:47.103Z,7.61
2019-02-08T16:46:17.415Z,7.54
2019-02-08T16:48:47.816Z,7.38
2019-02-08T16:51:18.264Z,7.43
2019-02-08T16:53:53.632Z,7.34
2019-02-08T16:56:20.699Z,7.48
2019-02-08T16:58:50.972Z,7.63
2019-02-08T17:01:21.410Z,7.57
2019-02-08T17:03:51.854Z,7.58
2019-02-08T17:06:22.175Z,7.60
2019-02-08T17:08:52.442Z,7.38
2019-02-08T17:11:22.764Z,7.16
2019-02-08T17:13:53.073Z,7.12
2019-02-08T17:16:25.054Z,7.11
2019-02-08T17:18:55.388Z,6.87
2019-02-08T17:21:25.788Z,6.97
2019-02-08T17:23:56.623Z,6.78
2019-02-08T17:26:26.998Z,6.73
2019-02-08T17:28:57.284Z,6.79
2019-02-08T17:31:27.568Z,6.99
2019-02-08T17:33:57.997Z,7.02
2019-02-08T17:36:28.419Z,7.13
2019-02-08T17:38:58.709Z,7.10
2019-02-08T17:41:29.079Z,7.16
2019-02-08T17:43:59.499Z,7.18
2019-02-08T17:46:29.790Z,7.20
2019-02-08T17:49:00.380Z,7.14
2019-02-08T17:51:30.666Z,6.72
2019-02-08T17:54:01.580Z,6.89
2019-02-08T17:56:31.960Z,6.91
2019-02-08T17:59:02.395Z,6.72
2019-02-08T18:01:32.687Z,6.65
2019-02-08T18:04:03.007Z,6.45
2019-02-08T18:06:33.370Z,6.34
2019-02-08T18:09:05.332Z,6.44
2019-02-08T18:11:35.755Z,6.47
2019-02-08T18:14:06.999Z,6.76
2019-02-08T18:16:37.272Z,6.73
2019-02-08T18:19:07.619Z,6.50
2019-02-08T18:21:38.166Z,6.78
2019-02-08T18:24:08.454Z,6.84
2019-02-08T18:26:39.154Z,6.95
2019-02-08T18:29:09.454Z,7.04
2019-02-08T18:31:39.859Z,7.13
2019-02-08T18:34:10.441Z,7.17
2019-02-08T18:36:41.018Z,7.14
2019-02-08T18:39:11.362Z,7.17
2019-02-08T18:41:41.606Z,7.17
2019-02-08T18:44:11.900Z,6.89
2019-02-08T18:46:42.198Z,6.90
2019-02-08T18:49:13.450Z,6.74
2019-02-08T18:51:43.981Z,6.81
2019-02-08T18:54:14.349Z,6.84
2019-02-08T18:56:45.729Z,6.89
2019-02-08T18:59:17.088Z,6.89
2019-02-08T19:01:47.428Z,6.81
2019-02-08T19:04:17.778Z,6.86
2019-02-08T19:06:49.284Z,6.88
2019-02-08T19:09:19.613Z,6.67
2019-02-08T19:11:49.934Z,6.39
2019-02-08T19:14:21.305Z,6.36
2019-02-08T19:16:52.575Z,5.97
2019-02-08T19:19:22.945Z,6.05
2019-02-08T19:21:53.238Z,6.13
2019-02-08T19:24:23.826Z,6.05
2019-02-08T19:26:54.744Z,6.41
2019-02-08T19:29:25.541Z,6.44
2019-02-08T19:31:55.848Z,6.06
2019-02-08T19:34:26.170Z,5.91
2019-02-08T19:36:56.548Z,6.03
2019-02-08T19:39:26.842Z,5.97
2019-02-08T19:41:58.681Z,5.97
2019-02-08T19:44:28.976Z,5.94
2019-02-08T19:47:00.400Z,5.92
2019-02-08T19:49:31.913Z,5.86
2019-02-08T19:52:02.286Z,5.96
2019-02-08T19:54:33.884Z,5.81
2019-02-08T19:57:04.687Z,5.83
2019-02-08T19:59:35.681Z,5.70
2019-02-08T20:02:06.126Z,5.62
2019-02-08T20:04:37.101Z,5.78
2019-02-08T20:07:08.126Z,5.86
2019-02-08T20:09:38.547Z,5.80
2019-02-08T20:12:10.261Z,5.83
2019-02-08T20:14:40.586Z,6.01
2019-02-08T20:17:10.908Z,6.02
2019-02-08T20:19:41.226Z,6.11
2019-02-08T20:22:11.572Z,5.83
2019-02-08T20:24:42.539Z,5.77
2019-02-08T20:27:13.122Z,5.88
2019-02-08T20:29:43.428Z,5.82
2019-02-08T20:32:15.481Z,5.98
2019-02-08T20:34:58.155Z,5.98
2019-02-08T20:37:28.529Z,5.62
2019-02-08T20:39:58.939Z,5.79
2019-02-08T20:42:29.187Z,5.65
2019-02-08T20:44:59.701Z,5.73
2019-02-08T20:47:30.113Z,5.87
2019-02-08T20:50:00.515Z,5.88
2019-02-08T20:52:31.490Z,5.97
2019-02-08T20:55:01.839Z,5.90
2019-02-08T20:57:33.218Z,6.08
2019-02-08T21:00:06.625Z,6.07
2019-02-08T21:02:36.927Z,6.36
2019-02-08T21:05:07.590Z,6.37
2019-02-08T21:07:38.157Z,6.43
2019-02-08T21:10:10.975Z,6.30
2019-02-08T21:12:42.026Z,6.15
2019-02-08T21:15:20.303Z,5.98
2019-02-08T21:17:50.638Z,6.15
2019-02-08T21:20:21.132Z,6.32
2019-02-08T21:22:53.032Z,6.23
2019-02-08T21:25:37.808Z,6.07
2019-02-08T21:28:08.714Z,6.07
2019-02-08T21:30:40.027Z,5.84
2019-02-08T21:33:12.116Z,5.67
2019-02-08T21:35:42.973Z,5.76
2019-02-08T21:38:13.966Z,5.83
2019-02-08T21:40:44.305Z,5.62
2019-02-08T21:43:15.417Z,5.71
2019-02-08T21:45:46.411Z,5.84
2019-02-08T21:48:16.850Z,5.35
2019-02-08T21:50:47.833Z,5.57
2019-02-08T21:53:18.690Z,5.51
2019-02-08T21:55:49.106Z,5.73
2019-02-08T21:58:19.803Z,5.70
2019-02-08T22:00:53.178Z,5.68
2019-02-08T22:03:23.559Z,5.61
2019-02-08T22:05:59.899Z,5.42
2019-02-08T22:08:30.207Z,5.50
2019-02-08T22:11:00.587Z,5.56
2019-02-08T22:13:31.396Z,5.58
2019-02-08T22:16:01.888Z,5.54
2019-02-08T22:18:32.175Z,5.55
2019-02-08T22:21:02.492Z,5.64
2019-02-08T22:23:32.754Z,5.43
2019-02-08T22:26:03.044Z,5.69
2019-02-08T22:28:33.473Z,5.70
2019-02-08T22:31:03.762Z,5.97
2019-02-08T22:33:34.064Z,5.70
2019-02-08T22:36:04.380Z,5.80
2019-02-08T22:38:34.665Z,5.95
2019-02-08T22:41:05.084Z,5.77
2019-02-08T22:43:35.386Z,5.70
2019-02-08T22:46:05.673Z,5.74
2019-02-08T22:48:35.980Z,5.55
2019-02-08T22:51:06.271Z,5.59
2019-02-08T22:53:37.732Z,5.56
2019-02-08T22:56:08.055Z,5.46
2019-02-08T22:58:38.341Z,5.80
2019-02-08T23:01:14.784Z,5.59
2019-02-08T23:03:45.083Z,5.79
2019-02-08T23:06:15.377Z,5.31
2019-02-08T23:08:45.643Z,5.37
2019-02-08T23:11:15.942Z,5.42
2019-02-08T23:13:46.263Z,5.52
2019-02-08T23:16:16.592Z,5.44
2019-02-08T23:18:47.206Z,5.40
2019-02-08T23:21:17.500Z,5.23
2019-02-08T23:23:47.843Z,5.13
2019-02-08T23:26:19.285Z,5.31
2019-02-08T23:28:49.673Z,5.32
2019-02-08T23:31:20.013Z,5.37
2019-02-08T23:33:51.956Z,5.15
2019-02-08T23:36:22.320Z,5.21
2019-02-08T23:38:52.610Z,5.22
2019-02-08T23:41:23.109Z,5.16
2019-02-08T23:43:53.539Z,5.13
2019-02-08T23:46:24.146Z,5.29
2019-02-08T23:48:54.477Z,5.30
2019-02-08T23:51:24.745Z,5.27
2019-02-08T23:53:55.034Z,5.24
2019-02-08T23:56:25.296Z,5.13
2019-02-08T23:58:55.568Z,5.30
